WMT716 EBCI-LROP
Flight info
| Callsign | WMT716 |
|---|---|
| Flight time | N/A |
| Altitude | 37000 |
| Route | SOPOK1X/06 SOPOK Y863 ROPUV L607 ULNOK DCT VIBOM DCT NOMBO DCT RIDAR DCT GOMIG DCT GOTAR DCT INVED DCT LAMIT DCT TOSVI |
| Aircraft | A321/M-SDE3FGHIRWY/LB1 |
Departure
| Time | 2026-04-29 18:04 |
|---|---|
| Airport | Brussels South Charleroi Airport (EBCI) |
Arrival
| Time | N/A |
|---|---|
| Airport | Bucharest Henri Coandă International Airport (LROP) |
| Time | Latitude | Longitude | Altitude | Speed | Heading |
|---|---|---|---|---|---|
| 2026-04-29 17:41 | 50.46836 | 4.46988 | 585 ft | 0 kts | 338° |
| 2026-04-29 17:49 | 50.46835 | 4.46988 | 585 ft | 0 kts | 338° |
| 2026-04-29 17:52 | 50.46833 | 4.46991 | 585 ft | 4 kts | 347° |
| 2026-04-29 17:52 | 50.46823 | 4.46998 | 585 ft | 4 kts | 333° |
| 2026-04-29 17:52 | 50.46799 | 4.47033 | 585 ft | 4 kts | 279° |
| 2026-04-29 17:52 | 50.46801 | 4.47067 | 586 ft | 1 kts | 245° |
| 2026-04-29 17:53 | 50.46803 | 4.47074 | 586 ft | 3 kts | 245° |
| 2026-04-29 17:57 | 50.46797 | 4.47053 | 587 ft | 5 kts | 245° |
| 2026-04-29 17:57 | 50.46773 | 4.46971 | 587 ft | 11 kts | 245° |
| 2026-04-29 17:57 | 50.46735 | 4.46843 | 589 ft | 14 kts | 245° |
| 2026-04-29 17:57 | 50.46708 | 4.46751 | 590 ft | 13 kts | 245° |
| 2026-04-29 17:58 | 50.46658 | 4.46579 | 590 ft | 10 kts | 243° |
| 2026-04-29 17:58 | 50.46603 | 4.46545 | 592 ft | 1 kts | 175° |
| 2026-04-29 17:58 | 50.46587 | 4.46552 | 593 ft | 4 kts | 162° |
| 2026-04-29 17:58 | 50.46537 | 4.46535 | 590 ft | 12 kts | 221° |
| 2026-04-29 17:59 | 50.46486 | 4.46391 | 589 ft | 18 kts | 245° |
| 2026-04-29 17:59 | 50.46431 | 4.46204 | 591 ft | 20 kts | 245° |
| 2026-04-29 17:59 | 50.46370 | 4.45990 | 596 ft | 22 kts | 245° |
| 2026-04-29 17:59 | 50.46304 | 4.45765 | 597 ft | 24 kts | 245° |
| 2026-04-29 18:00 | 50.46239 | 4.45540 | 600 ft | 21 kts | 245° |
| 2026-04-29 18:00 | 50.46179 | 4.45336 | 599 ft | 20 kts | 245° |
| 2026-04-29 18:00 | 50.46116 | 4.45117 | 597 ft | 25 kts | 245° |
| 2026-04-29 18:00 | 50.46049 | 4.44888 | 597 ft | 18 kts | 246° |
| 2026-04-29 18:01 | 50.46004 | 4.44788 | 597 ft | 0 kts | 210° |
| 2026-04-29 18:03 | 50.45992 | 4.44781 | 596 ft | 8 kts | 198° |
| 2026-04-29 18:03 | 50.45893 | 4.44827 | 597 ft | 15 kts | 137° |
| 2026-04-29 18:03 | 50.45901 | 4.44996 | 594 ft | 13 kts | 65° |
| 2026-04-29 18:03 | 50.45904 | 4.45006 | 594 ft | 2 kts | 65° |
| 2026-04-29 18:04 | 50.45989 | 4.45299 | 591 ft | 78 kts | 65° |
| 2026-04-29 18:04 | 50.46346 | 4.46520 | 635 ft | 159 kts | 64° |
| 2026-04-29 18:04 | 50.46842 | 4.48076 | 1600 ft | 161 kts | 58° |
| 2026-04-29 18:04 | 50.47566 | 4.49502 | 2470 ft | 176 kts | 52° |
| 2026-04-29 18:05 | 50.48448 | 4.51041 | 3050 ft | 204 kts | 54° |
| 2026-04-29 18:05 | 50.49467 | 4.52865 | 3708 ft | 238 kts | 54° |
| 2026-04-29 18:05 | 50.50577 | 4.54901 | 3981 ft | 250 kts | 55° |
| 2026-04-29 18:05 | 50.51702 | 4.56987 | 4033 ft | 250 kts | 54° |
| 2026-04-29 18:06 | 50.52817 | 4.59069 | 4035 ft | 249 kts | 56° |
| 2026-04-29 18:06 | 50.53901 | 4.61202 | 4036 ft | 251 kts | 56° |
| 2026-04-29 18:06 | 50.54939 | 4.63309 | 4035 ft | 249 kts | 57° |
| 2026-04-29 18:06 | 50.56003 | 4.65486 | 4425 ft | 253 kts | 56° |
| 2026-04-29 18:07 | 50.57077 | 4.67681 | 5647 ft | 256 kts | 56° |
| 2026-04-29 18:07 | 50.58162 | 4.69900 | 6171 ft | 256 kts | 56° |
| 2026-04-29 18:07 | 50.59243 | 4.72111 | 6428 ft | 255 kts | 55° |
| 2026-04-29 18:07 | 50.60328 | 4.74332 | 6527 ft | 256 kts | 55° |
| 2026-04-29 18:08 | 50.61415 | 4.76550 | 6547 ft | 256 kts | 55° |
| 2026-04-29 18:08 | 50.62499 | 4.78755 | 6549 ft | 255 kts | 56° |
| 2026-04-29 18:08 | 50.63598 | 4.80991 | 6946 ft | 262 kts | 55° |
| 2026-04-29 18:08 | 50.64712 | 4.83256 | 8248 ft | 261 kts | 55° |
| 2026-04-29 18:09 | 50.65675 | 4.85667 | 9518 ft | 263 kts | 68° |
| 2026-04-29 18:09 | 50.66118 | 4.88487 | 10592 ft | 270 kts | 85° |
| 2026-04-29 18:09 | 50.65958 | 4.91474 | 11368 ft | 291 kts | 102° |
| 2026-04-29 18:09 | 50.65337 | 4.94653 | 11872 ft | 316 kts | 105° |
| 2026-04-29 18:10 | 50.64647 | 4.98089 | 12362 ft | 339 kts | 105° |
| 2026-04-29 18:10 | 50.63925 | 5.01687 | 13214 ft | 349 kts | 105° |
| 2026-04-29 18:10 | 50.63191 | 5.05362 | 14223 ft | 355 kts | 105° |
| 2026-04-29 18:10 | 50.62449 | 5.09105 | 15133 ft | 359 kts | 104° |
| 2026-04-29 18:11 | 50.61700 | 5.12898 | 16028 ft | 366 kts | 104° |
| 2026-04-29 18:11 | 50.60937 | 5.16754 | 16906 ft | 373 kts | 104° |
| 2026-04-29 18:11 | 50.60158 | 5.20687 | 17808 ft | 379 kts | 104° |
| 2026-04-29 18:11 | 50.59368 | 5.24672 | 18707 ft | 384 kts | 104° |
| 2026-04-29 18:12 | 50.58388 | 5.28622 | 19461 ft | 395 kts | 117° |
| 2026-04-29 18:12 | 50.56566 | 5.31923 | 20182 ft | 408 kts | 134° |
| 2026-04-29 18:12 | 50.54449 | 5.34894 | 20252 ft | 407 kts | 135° |
| 2026-04-29 18:12 | 50.52346 | 5.37862 | 20259 ft | 406 kts | 134° |
| 2026-04-29 18:13 | 50.50265 | 5.40845 | 20256 ft | 404 kts | 134° |
| 2026-04-29 18:13 | 50.48202 | 5.43849 | 20255 ft | 403 kts | 133° |
| 2026-04-29 18:13 | 50.46158 | 5.46856 | 20246 ft | 403 kts | 133° |
| 2026-04-29 18:13 | 50.44114 | 5.49875 | 20250 ft | 403 kts | 133° |
| 2026-04-29 18:14 | 50.42070 | 5.52891 | 20249 ft | 403 kts | 133° |
| 2026-04-29 18:14 | 50.40025 | 5.55903 | 20259 ft | 403 kts | 133° |
| 2026-04-29 18:14 | 50.37998 | 5.58878 | 20248 ft | 404 kts | 133° |
| 2026-04-29 18:14 | 50.35945 | 5.61882 | 20245 ft | 404 kts | 133° |
| 2026-04-29 18:15 | 50.33887 | 5.64885 | 20237 ft | 404 kts | 133° |
| 2026-04-29 18:15 | 50.31824 | 5.67881 | 20243 ft | 405 kts | 134° |
| 2026-04-29 18:15 | 50.29763 | 5.70872 | 20247 ft | 405 kts | 133° |
| 2026-04-29 18:15 | 50.27741 | 5.73939 | 20250 ft | 402 kts | 128° |
| 2026-04-29 18:16 | 50.26064 | 5.77418 | 20463 ft | 401 kts | 118° |
| 2026-04-29 18:16 | 50.24801 | 5.81304 | 21349 ft | 400 kts | 109° |
| 2026-04-29 18:16 | 50.23935 | 5.85423 | 22189 ft | 400 kts | 102° |
| 2026-04-29 18:16 | 50.23218 | 5.89639 | 22997 ft | 403 kts | 102° |
| 2026-04-29 18:17 | 50.22512 | 5.93835 | 23770 ft | 407 kts | 102° |
| 2026-04-29 18:17 | 50.21791 | 5.98125 | 24144 ft | 410 kts | 102° |
| 2026-04-29 18:17 | 50.21050 | 6.02505 | 24783 ft | 413 kts | 102° |
| 2026-04-29 18:17 | 50.20311 | 6.06849 | 25465 ft | 415 kts | 102° |
| 2026-04-29 18:18 | 50.19562 | 6.11219 | 26014 ft | 418 kts | 102° |
| 2026-04-29 18:18 | 50.18839 | 6.15559 | 26194 ft | 416 kts | 99° |
| 2026-04-29 18:18 | 50.18446 | 6.20007 | 26242 ft | 413 kts | 91° |
| 2026-04-29 18:18 | 50.18515 | 6.24458 | 26237 ft | 410 kts | 82° |
| 2026-04-29 18:19 | 50.18812 | 6.28890 | 26236 ft | 410 kts | 82° |
| 2026-04-29 18:19 | 50.19099 | 6.33317 | 26235 ft | 410 kts | 83° |
| 2026-04-29 18:19 | 50.19376 | 6.37740 | 26235 ft | 410 kts | 83° |
| 2026-04-29 18:19 | 50.19647 | 6.42172 | 26235 ft | 410 kts | 83° |
| 2026-04-29 18:20 | 50.19915 | 6.46607 | 26234 ft | 410 kts | 82° |
| 2026-04-29 18:20 | 50.20183 | 6.51034 | 26245 ft | 410 kts | 82° |
| 2026-04-29 18:20 | 50.20453 | 6.55493 | 26811 ft | 414 kts | 82° |
| 2026-04-29 18:20 | 50.20721 | 6.59976 | 27499 ft | 416 kts | 82° |
| 2026-04-29 18:21 | 50.20991 | 6.64477 | 28171 ft | 418 kts | 82° |
| 2026-04-29 18:21 | 50.21263 | 6.69017 | 28835 ft | 420 kts | 82° |
| 2026-04-29 18:21 | 50.21535 | 6.73571 | 29477 ft | 423 kts | 82° |
| 2026-04-29 18:21 | 50.21808 | 6.78166 | 30075 ft | 424 kts | 82° |
| 2026-04-29 18:22 | 50.21987 | 6.81190 | 30546 ft | 423 kts | 82° |
| 2026-04-29 18:22 | 50.22137 | 6.85789 | 31057 ft | 425 kts | 88° |
| 2026-04-29 18:22 | 50.21932 | 6.90399 | 31261 ft | 426 kts | 91° |
| 2026-04-29 18:23 | 50.21438 | 6.99588 | 31274 ft | 424 kts | 91° |
| 2026-04-29 18:23 | 50.20949 | 7.08759 | 31274 ft | 424 kts | 91° |
| 2026-04-29 18:24 | 50.20455 | 7.17930 | 31274 ft | 424 kts | 92° |
| 2026-04-29 18:24 | 50.19816 | 7.22441 | 31274 ft | 432 kts | 106° |
| 2026-04-29 18:24 | 50.18629 | 7.26767 | 31276 ft | 434 kts | 109° |
| 2026-04-29 18:25 | 50.16159 | 7.35369 | 31303 ft | 435 kts | 109° |
| 2026-04-29 18:25 | 50.13668 | 7.43962 | 31269 ft | 435 kts | 109° |
| 2026-04-29 18:26 | 50.11207 | 7.52509 | 31278 ft | 435 kts | 109° |
| 2026-04-29 18:26 | 50.08727 | 7.61101 | 31276 ft | 434 kts | 109° |
| 2026-04-29 18:27 | 50.06237 | 7.69670 | 31275 ft | 435 kts | 109° |
| 2026-04-29 18:27 | 50.03741 | 7.78236 | 31298 ft | 435 kts | 109° |
| 2026-04-29 18:28 | 50.01234 | 7.86801 | 31270 ft | 435 kts | 109° |
| 2026-04-29 18:28 | 49.98720 | 7.95365 | 31269 ft | 436 kts | 109° |
| 2026-04-29 18:28 | 49.97458 | 7.99661 | 31482 ft | 438 kts | 109° |
| 2026-04-29 18:29 | 49.96218 | 8.03872 | 32003 ft | 437 kts | 109° |
| 2026-04-29 18:29 | 49.94947 | 8.08172 | 32506 ft | 437 kts | 110° |
| 2026-04-29 18:29 | 49.93677 | 8.12452 | 32960 ft | 438 kts | 110° |
| 2026-04-29 18:29 | 49.92397 | 8.16763 | 33219 ft | 440 kts | 110° |
| 2026-04-29 18:30 | 49.91115 | 8.21078 | 33290 ft | 440 kts | 110° |
| 2026-04-29 18:30 | 49.88786 | 8.28907 | 33262 ft | 446 kts | 111° |
| 2026-04-29 18:31 | 49.86162 | 8.37688 | 33263 ft | 449 kts | 111° |
| 2026-04-29 18:31 | 49.82827 | 8.45925 | 33256 ft | 456 kts | 125° |
| 2026-04-29 18:32 | 49.78862 | 8.53605 | 33256 ft | 456 kts | 124° |
| 2026-04-29 18:32 | 49.72964 | 8.65052 | 33248 ft | 456 kts | 124° |
| 2026-04-29 18:33 | 49.69010 | 8.72706 | 33249 ft | 455 kts | 125° |
| 2026-04-29 18:33 | 49.65043 | 8.80342 | 33250 ft | 455 kts | 125° |
| 2026-04-29 18:34 | 49.61741 | 8.86674 | 33244 ft | 457 kts | 126° |
| 2026-04-29 18:34 | 49.57060 | 8.95637 | 33244 ft | 460 kts | 126° |
| 2026-04-29 18:35 | 49.53021 | 9.03334 | 33623 ft | 464 kts | 127° |
| 2026-04-29 18:35 | 49.51009 | 9.07155 | 33994 ft | 465 kts | 126° |
| 2026-04-29 18:35 | 49.48963 | 9.11038 | 34341 ft | 467 kts | 127° |
| 2026-04-29 18:36 | 49.46927 | 9.14931 | 34682 ft | 466 kts | 124° |
| 2026-04-29 18:36 | 49.45111 | 9.19054 | 34997 ft | 466 kts | 121° |
| 2026-04-29 18:36 | 49.43347 | 9.23234 | 35312 ft | 467 kts | 121° |
| 2026-04-29 18:36 | 49.41576 | 9.27416 | 35609 ft | 468 kts | 121° |
| 2026-04-29 18:37 | 49.39792 | 9.31609 | 35904 ft | 469 kts | 121° |
| 2026-04-29 18:37 | 49.38002 | 9.35804 | 36214 ft | 470 kts | 121° |
| 2026-04-29 18:37 | 49.36211 | 9.39991 | 36564 ft | 470 kts | 122° |
| 2026-04-29 18:37 | 49.34402 | 9.44203 | 36766 ft | 475 kts | 122° |
| 2026-04-29 18:38 | 49.32577 | 9.48446 | 37006 ft | 477 kts | 123° |
| 2026-04-29 18:38 | 49.30772 | 9.52642 | 37195 ft | 479 kts | 122° |
| 2026-04-29 18:38 | 49.27100 | 9.61172 | 37234 ft | 479 kts | 123° |
| 2026-04-29 18:39 | 49.23421 | 9.69674 | 37239 ft | 479 kts | 123° |
| 2026-04-29 18:39 | 49.19737 | 9.78180 | 37259 ft | 479 kts | 123° |
| 2026-04-29 18:40 | 49.16048 | 9.86677 | 37247 ft | 479 kts | 123° |
| 2026-04-29 18:40 | 49.12349 | 9.95152 | 37246 ft | 480 kts | 123° |
| 2026-04-29 18:41 | 49.04531 | 10.11607 | 37246 ft | 484 kts | 136° |
| 2026-04-29 18:42 | 48.99755 | 10.18840 | 37246 ft | 485 kts | 136° |
| 2026-04-29 18:42 | 48.94977 | 10.26099 | 37251 ft | 486 kts | 136° |
| 2026-04-29 18:43 | 48.90183 | 10.33364 | 37250 ft | 486 kts | 136° |
| 2026-04-29 18:43 | 48.85415 | 10.40565 | 37250 ft | 486 kts | 136° |
| 2026-04-29 18:44 | 48.80618 | 10.47782 | 37252 ft | 486 kts | 136° |
| 2026-04-29 18:44 | 48.75795 | 10.55021 | 37239 ft | 487 kts | 136° |
| 2026-04-29 18:45 | 48.70960 | 10.62241 | 37239 ft | 488 kts | 136° |
| 2026-04-29 18:45 | 48.66118 | 10.69466 | 37228 ft | 489 kts | 136° |
| 2026-04-29 18:46 | 48.61336 | 10.76766 | 37226 ft | 489 kts | 130° |
| 2026-04-29 18:46 | 48.57752 | 10.85391 | 37221 ft | 489 kts | 112° |
| 2026-04-29 18:47 | 48.55478 | 10.95094 | 37205 ft | 491 kts | 108° |
| 2026-04-29 18:47 | 48.53235 | 11.04849 | 37212 ft | 492 kts | 108° |
| 2026-04-29 18:48 | 48.50968 | 11.14619 | 37216 ft | 493 kts | 108° |
| 2026-04-29 18:48 | 48.48712 | 11.24363 | 37213 ft | 493 kts | 108° |
| 2026-04-29 18:49 | 48.46477 | 11.33986 | 37207 ft | 493 kts | 108° |
| 2026-04-29 18:49 | 48.44204 | 11.43753 | 37212 ft | 494 kts | 109° |
| 2026-04-29 18:50 | 48.41920 | 11.53504 | 37219 ft | 494 kts | 109° |
| 2026-04-29 18:50 | 48.39615 | 11.63251 | 37219 ft | 494 kts | 109° |
| 2026-04-29 18:51 | 48.37306 | 11.72992 | 37215 ft | 494 kts | 109° |
| 2026-04-29 18:51 | 48.34988 | 11.82733 | 37221 ft | 494 kts | 109° |
| 2026-04-29 18:52 | 48.32678 | 11.92388 | 37224 ft | 494 kts | 109° |
| 2026-04-29 18:52 | 48.30346 | 12.02114 | 37224 ft | 494 kts | 109° |
| 2026-04-29 18:53 | 48.29097 | 12.07312 | 37213 ft | 494 kts | 109° |
| 2026-04-29 18:54 | 48.28738 | 12.08813 | 37227 ft | 494 kts | 109° |
| 2026-04-29 18:54 | 48.27521 | 12.13861 | 37213 ft | 495 kts | 109° |
| 2026-04-29 18:55 | 48.26707 | 12.17225 | 37212 ft | 495 kts | 109° |
| 2026-04-29 18:56 | 48.24727 | 12.25358 | 37220 ft | 495 kts | 109° |
| 2026-04-29 18:56 | 48.22358 | 12.35065 | 37225 ft | 495 kts | 109° |
| 2026-04-29 18:57 | 48.19989 | 12.44754 | 37226 ft | 495 kts | 109° |
| 2026-04-29 18:57 | 48.17603 | 12.54455 | 37223 ft | 495 kts | 109° |
| 2026-04-29 18:58 | 48.15231 | 12.64073 | 37229 ft | 495 kts | 110° |
| 2026-04-29 18:58 | 48.12745 | 12.73697 | 37226 ft | 496 kts | 112° |
| 2026-04-29 18:59 | 48.09924 | 12.83116 | 37221 ft | 496 kts | 115° |
| 2026-04-29 18:59 | 48.06977 | 12.92411 | 37226 ft | 497 kts | 115° |
| 2026-04-29 19:00 | 48.04064 | 13.01791 | 37228 ft | 497 kts | 114° |
| 2026-04-29 19:00 | 48.01201 | 13.11215 | 37225 ft | 497 kts | 114° |
| 2026-04-29 19:01 | 47.98382 | 13.20498 | 37226 ft | 497 kts | 114° |
| 2026-04-29 19:01 | 47.98357 | 13.20579 | 37227 ft | 497 kts | 114° |
| 2026-04-29 19:04 | 47.98347 | 13.20611 | 37227 ft | 497 kts | 114° |
| 2026-04-29 19:05 | 47.95472 | 13.30022 | 37219 ft | 498 kts | 115° |
| 2026-04-29 19:05 | 47.92554 | 13.39381 | 37220 ft | 498 kts | 115° |
| 2026-04-29 19:06 | 47.89624 | 13.48745 | 37219 ft | 498 kts | 115° |
| 2026-04-29 19:07 | 47.85243 | 13.62798 | 37220 ft | 498 kts | 114° |
| 2026-04-29 19:07 | 47.82321 | 13.72173 | 37201 ft | 500 kts | 115° |
| 2026-04-29 19:08 | 47.79371 | 13.81562 | 37213 ft | 502 kts | 115° |
| 2026-04-29 19:08 | 47.76422 | 13.90904 | 37211 ft | 502 kts | 115° |
| 2026-04-29 19:09 | 47.73449 | 14.00306 | 37215 ft | 502 kts | 115° |
| 2026-04-29 19:09 | 47.70465 | 14.09691 | 37218 ft | 503 kts | 116° |
| 2026-04-29 19:10 | 47.69051 | 14.14105 | 37220 ft | 503 kts | 115° |
| 2026-04-29 19:10 | 47.66053 | 14.23478 | 37215 ft | 503 kts | 115° |
| 2026-04-29 19:11 | 47.63053 | 14.32847 | 37216 ft | 503 kts | 115° |
| 2026-04-29 19:11 | 47.60062 | 14.42137 | 37205 ft | 503 kts | 116° |
| 2026-04-29 19:12 | 47.57035 | 14.51491 | 37209 ft | 503 kts | 116° |
| 2026-04-29 19:12 | 47.54005 | 14.60827 | 37209 ft | 503 kts | 116° |
| 2026-04-29 19:13 | 47.50969 | 14.70151 | 37211 ft | 503 kts | 116° |
| 2026-04-29 19:13 | 47.47926 | 14.79483 | 37214 ft | 504 kts | 116° |
| 2026-04-29 19:14 | 47.44861 | 14.88817 | 37215 ft | 505 kts | 116° |
| 2026-04-29 19:14 | 47.42306 | 14.96575 | 37217 ft | 505 kts | 116° |
| 2026-04-29 19:15 | 47.38724 | 15.07421 | 37219 ft | 506 kts | 116° |
| 2026-04-29 19:15 | 47.35630 | 15.16758 | 37222 ft | 507 kts | 117° |
| 2026-04-29 19:16 | 47.32518 | 15.26106 | 37226 ft | 508 kts | 117° |
| 2026-04-29 19:16 | 47.31798 | 15.28263 | 37232 ft | 508 kts | 117° |
| 2026-04-29 19:17 | 47.31784 | 15.28303 | 37231 ft | 508 kts | 117° |
| 2026-04-29 19:17 | 47.28650 | 15.37618 | 37227 ft | 508 kts | 117° |
| 2026-04-29 19:18 | 47.25520 | 15.46976 | 37230 ft | 508 kts | 117° |
| 2026-04-29 19:18 | 47.22393 | 15.56310 | 37231 ft | 509 kts | 117° |
| 2026-04-29 19:19 | 47.19252 | 15.65628 | 37233 ft | 510 kts | 117° |
| 2026-04-29 19:19 | 47.16085 | 15.74963 | 37235 ft | 510 kts | 117° |
| 2026-04-29 19:20 | 47.12906 | 15.84282 | 37234 ft | 510 kts | 117° |
| 2026-04-29 19:20 | 47.09746 | 15.93544 | 37236 ft | 511 kts | 117° |
| 2026-04-29 19:21 | 47.06561 | 16.02851 | 37238 ft | 511 kts | 117° |
| 2026-04-29 19:21 | 47.03351 | 16.12175 | 37234 ft | 511 kts | 117° |
| 2026-04-29 19:22 | 47.00202 | 16.21520 | 37237 ft | 511 kts | 112° |
| 2026-04-29 19:22 | 46.98162 | 16.31490 | 37244 ft | 511 kts | 104° |
| 2026-04-29 19:23 | 46.96343 | 16.41552 | 37239 ft | 511 kts | 104° |